• Join FlightAware (Why Join?)
  • Login
  • US Flag 
12:00AM EDT


 

Airport Tracker/Info


-or-


 

Live Flight TrackerFlight Track Log ✈ TAM3421 ✈ 17-Jun-2013 ✈ SBSN / STM - SBBE / BEL

Flight Track Log - Related Links

Times and Time Zones

All times are in EDT time to prevent confusion due to time zone crossing. See the TAM3421 flight status page for this flight to view local times or setup timezone preferences in your user account.

Time Position Orientation Groundspeed Altitude Reporting Facility
EDT Latitude Longitude Course Direction KTS MPH feet Rate Location/Type
03:18PM -2.1265 -52.9855 81° East  Level Estimated
03:19PM -2.1117 -52.8952 81° East  Level Estimated
03:20PM -2.0968 -52.8048 81° East  Level Estimated
03:21PM -2.0820 -52.7145 81° East  Level Estimated
03:22PM -2.0671 -52.6241 81° East  Level Estimated
03:23PM -2.0522 -52.5338 81° East  Level Estimated
03:24PM -2.0373 -52.4435 81° East  Level Estimated
03:25PM -2.0225 -52.3531 81° East  Level Estimated
03:26PM -2.0076 -52.2628 81° East  Level Estimated
03:27PM -1.9927 -52.1725 81° East  Level Estimated
03:28PM -1.9778 -52.0821 81° East  Level Estimated
03:29PM -1.9629 -51.9918 81° East  Level Estimated
03:30PM -1.9480 -51.9015 81° East  Level Estimated
03:31PM -1.9331 -51.8112 81° East  Level Estimated
03:32PM -1.9181 -51.7209 81° East  Level Estimated
03:33PM -1.9032 -51.6305 81° East  Level Estimated
03:34PM -1.8883 -51.5402 81° East  Level Estimated
03:35PM -1.8734 -51.4499 81° East  Level Estimated
03:36PM -1.8584 -51.3596 81° East  Level Estimated
03:37PM -1.8435 -51.2692 81° East  Level Estimated
03:38PM -1.8285 -51.1789 81° East  Level Estimated
03:39PM -1.8136 -51.0886 81° East  Level Estimated
03:40PM -1.7986 -50.9983 81° East  Level Estimated
03:41PM -1.7837 -50.9080 81° East  Level Estimated
03:42PM -1.7687 -50.8177 81° East  Level Estimated
03:43PM -1.7537 -50.7274 81° East  Level Estimated
03:44PM -1.7388 -50.6371 81° East  Level Estimated
03:45PM -1.7238 -50.5468 81° East  Level Estimated
03:46PM -1.7088 -50.4565 81° East  Level Estimated
03:47PM -1.6938 -50.3662 81° East  Level Estimated
03:48PM -1.6788 -50.2759 81° East  Level Estimated
03:49PM -1.6638 -50.1856 81° East  Level Estimated
03:50PM -1.6488 -50.0953 81° East  Level Estimated
03:51PM -1.6338 -50.0050 81° East  Level Estimated
03:52PM -1.6188 -49.9147 81° East  Level Estimated
03:53PM -1.6038 -49.8244 81° East  Level Estimated
03:54PM -1.5888 -49.7341 81° East  Level Estimated
03:55PM -1.5738 -49.6438 81° East  Level Estimated
03:56PM -1.5588 -49.5535 81° East  Level Estimated
03:57PM -1.5438 -49.4632 81° East  Level Estimated
03:58PM -1.5287 -49.3730 81° East  Level Estimated
03:59PM -1.5137 -49.2827 81° East  Level Estimated
04:00PM -1.4986 -49.1924 81° East  Level Estimated
04:01PM -1.4836 -49.1021 81° East  Level Estimated
04:02PM -1.4686 -49.0118 81° East  Level Estimated
04:03PM -1.4535 -48.9216 81° East  Level Estimated
04:04PM -1.4385 -48.8313 81° East  Level Estimated
04:05PM -1.4234 -48.7410 81° East  Level Estimated
04:06PM -1.4083 -48.6507 81° East  Level Estimated
04:07PM -1.3933 -48.5604 81° East  Level Estimated
04:08PM -1.3793 -48.4763 81° East  Level Estimated
04:09PM -1.3793 -48.4763 270° West  Level Estimated
04:10PM -1.3793 -48.4763 270° West  Level Estimated
04:11PM -1.3793 -48.4763 270° West  Level Estimated
04:12PM -1.3793 -48.4763 270° West  Level Estimated
04:13PM -1.3793 -48.4763 270° West  Level Estimated
04:14PM -1.3793 -48.4763 270° West  Level Estimated
04:15PM -1.3793 -48.4763 270° West  Level Estimated
04:16PM -1.3793 -48.4763 270° West  Level Estimated
04:17PM -1.3793 -48.4763 270° West  Level Estimated
04:18PM -1.3793 -48.4763 270° West  Level Estimated
04:19PM -1.3793 -48.4763 270° West  Level Estimated
04:20PM -1.3793 -48.4763 270° West  Level Estimated
04:21PM -1.3793 -48.4763 270° West  Level Estimated
04:22PM -1.3793 -48.4763 270° West  Level Estimated
04:23PM -1.3793 -48.4763 270° West  Level Estimated
04:24PM -1.3793 -48.4763 270° West  Level Estimated